Terminal Aerodrome Forecast
Issued by NWS Cleveland, OH

Home | Current Version | Previous Version | Text Only | Print | Product List | Glossary On
Versions: 1 2 3 4 5 6 7 8 9 10 11 12 13 14 15 16 17 18
744
FTUS41 KCLE 131805 AAA
TAFMFD
TAF AMD
KMFD 131805Z 1318/1418 29011KT P6SM BKN035
      TEMPO 1318/1322 3SM -SHSN OVC025
     FM140000 29006KT P6SM BKN035
     FM141100 VRB03KT P6SM SCT030=

USA.gov is the U.S. government's official web portal to all federal, state and local government web resources and services.